sensor_id;sensor_type;location;lat;lon;timestamp;P1;durP1;ratioP1;P2;durP2;ratioP2
4595;SDS011;2310;49.978;8.742;2022-12-07T00:00:22;15.37;;;11.20;;
4595;SDS011;2310;49.978;8.742;2022-12-07T00:04:23;13.10;;;10.00;;
4595;SDS011;2310;49.978;8.742;2022-12-07T00:08:25;15.33;;;11.03;;
4595;SDS011;2310;49.978;8.742;2022-12-07T00:12:26;15.20;;;10.67;;
4595;SDS011;2310;49.978;8.742;2022-12-07T00:16:28;13.27;;;10.87;;
4595;SDS011;2310;49.978;8.742;2022-12-07T00:20:30;14.40;;;10.33;;
4595;SDS011;2310;49.978;8.742;2022-12-07T00:24:32;13.50;;;10.87;;
4595;SDS011;2310;49.978;8.742;2022-12-07T00:28:33;17.93;;;12.23;;
4595;SDS011;2310;49.978;8.742;2022-12-07T00:32:35;15.97;;;12.20;;
4595;SDS011;2310;49.978;8.742;2022-12-07T00:36:36;16.43;;;12.10;;
4595;SDS011;2310;49.978;8.742;2022-12-07T00:40:37;14.73;;;11.47;;
4595;SDS011;2310;49.978;8.742;2022-12-07T00:44:38;13.97;;;11.13;;
4595;SDS011;2310;49.978;8.742;2022-12-07T00:48:39;16.33;;;11.50;;
4595;SDS011;2310;49.978;8.742;2022-12-07T00:52:41;17.80;;;11.43;;
4595;SDS011;2310;49.978;8.742;2022-12-07T00:56:42;16.57;;;12.37;;
4595;SDS011;2310;49.978;8.742;2022-12-07T01:00:43;16.33;;;11.37;;
4595;SDS011;2310;49.978;8.742;2022-12-07T01:04:44;15.20;;;11.60;;
4595;SDS011;2310;49.978;8.742;2022-12-07T01:08:46;14.90;;;11.93;;
4595;SDS011;2310;49.978;8.742;2022-12-07T01:12:47;19.13;;;13.13;;
4595;SDS011;2310;49.978;8.742;2022-12-07T01:16:48;15.87;;;11.13;;
4595;SDS011;2310;49.978;8.742;2022-12-07T01:21:03;14.47;;;12.30;;
4595;SDS011;2310;49.978;8.742;2022-12-07T01:25:10;15.43;;;11.63;;
4595;SDS011;2310;49.978;8.742;2022-12-07T01:29:12;17.20;;;11.27;;
4595;SDS011;2310;49.978;8.742;2022-12-07T01:33:13;18.63;;;12.57;;
4595;SDS011;2310;49.978;8.742;2022-12-07T01:37:14;17.43;;;12.27;;
4595;SDS011;2310;49.978;8.742;2022-12-07T01:41:15;18.20;;;13.87;;
4595;SDS011;2310;49.978;8.742;2022-12-07T01:53:45;15.50;;;10.90;;
4595;SDS011;2310;49.978;8.742;2022-12-07T01:57:47;13.13;;;10.80;;
4595;SDS011;2310;49.978;8.742;2022-12-07T02:01:50;18.27;;;11.60;;
4595;SDS011;2310;49.978;8.742;2022-12-07T02:05:52;16.90;;;10.10;;
4595;SDS011;2310;49.978;8.742;2022-12-07T02:09:54;14.17;;;10.93;;
4595;SDS011;2310;49.978;8.742;2022-12-07T02:13:55;15.17;;;10.73;;
4595;SDS011;2310;49.978;8.742;2022-12-07T02:17:59;14.20;;;11.57;;
4595;SDS011;2310;49.978;8.742;2022-12-07T02:31:20;16.47;;;10.37;;
4595;SDS011;2310;49.978;8.742;2022-12-07T02:35:27;14.37;;;9.70;;
4595;SDS011;2310;49.978;8.742;2022-12-07T02:39:43;14.13;;;10.13;;
4595;SDS011;2310;49.978;8.742;2022-12-07T02:43:53;16.47;;;10.70;;
4595;SDS011;2310;49.978;8.742;2022-12-07T02:47:56;15.90;;;11.63;;
4595;SDS011;2310;49.978;8.742;2022-12-07T02:52:00;14.00;;;11.20;;
4595;SDS011;2310;49.978;8.742;2022-12-07T02:56:11;17.87;;;10.73;;
4595;SDS011;2310;49.978;8.742;2022-12-07T03:00:23;12.57;;;10.47;;
4595;SDS011;2310;49.978;8.742;2022-12-07T03:04:29;16.50;;;11.23;;
4595;SDS011;2310;49.978;8.742;2022-12-07T03:17:27;12.83;;;9.70;;
4595;SDS011;2310;49.978;8.742;2022-12-07T03:21:36;11.10;;;8.87;;
4595;SDS011;2310;49.978;8.742;2022-12-07T03:25:44;12.30;;;9.23;;
4595;SDS011;2310;49.978;8.742;2022-12-07T03:29:52;11.80;;;9.53;;
4595;SDS011;2310;49.978;8.742;2022-12-07T03:39:04;15.43;;;11.47;;
4595;SDS011;2310;49.978;8.742;2022-12-07T03:42:28;13.60;;;9.90;;
4595;SDS011;2310;49.978;8.742;2022-12-07T03:59:10;13.10;;;9.13;;
4595;SDS011;2310;49.978;8.742;2022-12-07T04:03:13;12.70;;;9.13;;
4595;SDS011;2310;49.978;8.742;2022-12-07T04:07:14;13.63;;;9.80;;
4595;SDS011;2310;49.978;8.742;2022-12-07T04:11:15;13.73;;;9.10;;
4595;SDS011;2310;49.978;8.742;2022-12-07T04:15:16;10.73;;;8.07;;
4595;SDS011;2310;49.978;8.742;2022-12-07T04:19:18;11.10;;;7.77;;
4595;SDS011;2310;49.978;8.742;2022-12-07T04:23:21;15.97;;;10.00;;
4595;SDS011;2310;49.978;8.742;2022-12-07T04:27:22;11.50;;;8.47;;
4595;SDS011;2310;49.978;8.742;2022-12-07T04:31:23;15.20;;;9.03;;
4595;SDS011;2310;49.978;8.742;2022-12-07T04:35:24;14.43;;;9.40;;
4595;SDS011;2310;49.978;8.742;2022-12-07T04:39:29;14.23;;;11.13;;
4595;SDS011;2310;49.978;8.742;2022-12-07T04:43:32;10.00;;;7.13;;
4595;SDS011;2310;49.978;8.742;2022-12-07T04:47:33;12.37;;;8.70;;
4595;SDS011;2310;49.978;8.742;2022-12-07T04:51:35;12.50;;;9.10;;
4595;SDS011;2310;49.978;8.742;2022-12-07T04:55:36;15.30;;;9.77;;
4595;SDS011;2310;49.978;8.742;2022-12-07T04:59:37;12.30;;;7.93;;
4595;SDS011;2310;49.978;8.742;2022-12-07T05:03:40;14.33;;;9.33;;
4595;SDS011;2310;49.978;8.742;2022-12-07T05:07:41;12.53;;;8.27;;
4595;SDS011;2310;49.978;8.742;2022-12-07T05:11:42;11.80;;;8.00;;
4595;SDS011;2310;49.978;8.742;2022-12-07T05:15:43;10.80;;;8.33;;
4595;SDS011;2310;49.978;8.742;2022-12-07T05:19:45;13.30;;;10.00;;
4595;SDS011;2310;49.978;8.742;2022-12-07T05:23:46;12.27;;;8.83;;
4595;SDS011;2310;49.978;8.742;2022-12-07T05:27:47;14.87;;;9.53;;
4595;SDS011;2310;49.978;8.742;2022-12-07T05:31:48;12.07;;;9.00;;
4595;SDS011;2310;49.978;8.742;2022-12-07T05:35:49;14.17;;;9.17;;
4595;SDS011;2310;49.978;8.742;2022-12-07T05:39:51;13.20;;;9.87;;
4595;SDS011;2310;49.978;8.742;2022-12-07T05:43:52;13.57;;;9.80;;
4595;SDS011;2310;49.978;8.742;2022-12-07T05:47:54;14.10;;;10.20;;
4595;SDS011;2310;49.978;8.742;2022-12-07T05:51:55;12.87;;;9.80;;
4595;SDS011;2310;49.978;8.742;2022-12-07T05:55:56;13.50;;;9.40;;
4595;SDS011;2310;49.978;8.742;2022-12-07T05:59:57;18.60;;;11.00;;
4595;SDS011;2310;49.978;8.742;2022-12-07T06:03:58;13.20;;;9.23;;
4595;SDS011;2310;49.978;8.742;2022-12-07T06:08:00;13.93;;;9.37;;
4595;SDS011;2310;49.978;8.742;2022-12-07T06:12:03;13.97;;;10.43;;
4595;SDS011;2310;49.978;8.742;2022-12-07T06:16:24;12.33;;;9.03;;
4595;SDS011;2310;49.978;8.742;2022-12-07T06:20:25;14.40;;;10.60;;
4595;SDS011;2310;49.978;8.742;2022-12-07T06:24:26;15.53;;;10.40;;
4595;SDS011;2310;49.978;8.742;2022-12-07T06:28:28;12.77;;;8.83;;
4595;SDS011;2310;49.978;8.742;2022-12-07T06:32:29;13.47;;;9.60;;
4595;SDS011;2310;49.978;8.742;2022-12-07T06:36:30;12.33;;;9.13;;
4595;SDS011;2310;49.978;8.742;2022-12-07T06:40:31;11.37;;;8.50;;
4595;SDS011;2310;49.978;8.742;2022-12-07T06:44:33;15.63;;;11.33;;
4595;SDS011;2310;49.978;8.742;2022-12-07T06:48:34;14.87;;;10.80;;
4595;SDS011;2310;49.978;8.742;2022-12-07T06:52:35;11.33;;;8.57;;
4595;SDS011;2310;49.978;8.742;2022-12-07T06:56:36;14.10;;;9.73;;
4595;SDS011;2310;49.978;8.742;2022-12-07T07:00:38;15.47;;;11.57;;
4595;SDS011;2310;49.978;8.742;2022-12-07T07:04:39;15.70;;;10.60;;
4595;SDS011;2310;49.978;8.742;2022-12-07T07:08:40;11.83;;;8.83;;
4595;SDS011;2310;49.978;8.742;2022-12-07T07:12:42;13.87;;;9.47;;
4595;SDS011;2310;49.978;8.742;2022-12-07T07:16:43;13.00;;;9.00;;
4595;SDS011;2310;49.978;8.742;2022-12-07T07:20:44;14.80;;;10.20;;
4595;SDS011;2310;49.978;8.742;2022-12-07T07:24:45;14.30;;;11.50;;
4595;SDS011;2310;49.978;8.742;2022-12-07T07:28:47;12.10;;;8.33;;
4595;SDS011;2310;49.978;8.742;2022-12-07T07:32:48;14.77;;;11.07;;
4595;SDS011;2310;49.978;8.742;2022-12-07T07:36:49;11.90;;;9.60;;
4595;SDS011;2310;49.978;8.742;2022-12-07T07:40:50;13.30;;;10.83;;
4595;SDS011;2310;49.978;8.742;2022-12-07T07:44:51;13.00;;;10.07;;
4595;SDS011;2310;49.978;8.742;2022-12-07T07:48:52;15.93;;;9.40;;
4595;SDS011;2310;49.978;8.742;2022-12-07T07:52:53;13.73;;;9.50;;
4595;SDS011;2310;49.978;8.742;2022-12-07T07:56:54;12.37;;;9.93;;
4595;SDS011;2310;49.978;8.742;2022-12-07T08:00:55;12.60;;;9.70;;
4595;SDS011;2310;49.978;8.742;2022-12-07T08:04:56;14.97;;;10.00;;
4595;SDS011;2310;49.978;8.742;2022-12-07T08:08:58;14.93;;;11.57;;
4595;SDS011;2310;49.978;8.742;2022-12-07T08:12:59;14.23;;;10.53;;
4595;SDS011;2310;49.978;8.742;2022-12-07T08:17:12;18.13;;;10.40;;
4595;SDS011;2310;49.978;8.742;2022-12-07T08:21:14;16.70;;;11.43;;
4595;SDS011;2310;49.978;8.742;2022-12-07T08:25:15;19.73;;;12.60;;
4595;SDS011;2310;49.978;8.742;2022-12-07T08:29:17;18.43;;;13.30;;
4595;SDS011;2310;49.978;8.742;2022-12-07T08:33:19;16.90;;;13.73;;
4595;SDS011;2310;49.978;8.742;2022-12-07T08:37:22;14.10;;;12.57;;
4595;SDS011;2310;49.978;8.742;2022-12-07T08:41:23;16.03;;;12.60;;
4595;SDS011;2310;49.978;8.742;2022-12-07T08:45:24;15.63;;;12.73;;
4595;SDS011;2310;49.978;8.742;2022-12-07T08:49:30;17.20;;;12.83;;
4595;SDS011;2310;49.978;8.742;2022-12-07T08:53:44;20.43;;;15.70;;
4595;SDS011;2310;49.978;8.742;2022-12-07T08:57:46;18.87;;;13.97;;
4595;SDS011;2310;49.978;8.742;2022-12-07T09:01:47;17.90;;;13.63;;
4595;SDS011;2310;49.978;8.742;2022-12-07T09:05:48;16.17;;;13.03;;
4595;SDS011;2310;49.978;8.742;2022-12-07T09:09:50;13.80;;;10.90;;
4595;SDS011;2310;49.978;8.742;2022-12-07T09:13:51;15.57;;;11.60;;
4595;SDS011;2310;49.978;8.742;2022-12-07T09:17:52;14.90;;;10.40;;
4595;SDS011;2310;49.978;8.742;2022-12-07T09:21:53;13.80;;;10.50;;
4595;SDS011;2310;49.978;8.742;2022-12-07T09:25:54;14.80;;;12.07;;
4595;SDS011;2310;49.978;8.742;2022-12-07T09:29:55;13.47;;;10.00;;
4595;SDS011;2310;49.978;8.742;2022-12-07T09:33:57;12.57;;;9.53;;
4595;SDS011;2310;49.978;8.742;2022-12-07T09:38:00;13.70;;;10.00;;
4595;SDS011;2310;49.978;8.742;2022-12-07T09:42:03;14.07;;;10.30;;
4595;SDS011;2310;49.978;8.742;2022-12-07T09:46:05;15.00;;;10.03;;
4595;SDS011;2310;49.978;8.742;2022-12-07T09:50:12;15.10;;;11.37;;
4595;SDS011;2310;49.978;8.742;2022-12-07T09:54:16;12.40;;;9.67;;
4595;SDS011;2310;49.978;8.742;2022-12-07T09:58:22;12.43;;;10.20;;
4595;SDS011;2310;49.978;8.742;2022-12-07T10:02:34;12.10;;;9.60;;
4595;SDS011;2310;49.978;8.742;2022-12-07T10:06:39;15.67;;;10.83;;
4595;SDS011;2310;49.978;8.742;2022-12-07T10:10:42;15.17;;;12.73;;
4595;SDS011;2310;49.978;8.742;2022-12-07T10:15:00;17.60;;;14.37;;
4595;SDS011;2310;49.978;8.742;2022-12-07T10:23:27;13.10;;;9.87;;
4595;SDS011;2310;49.978;8.742;2022-12-07T10:27:32;12.97;;;9.73;;
4595;SDS011;2310;49.978;8.742;2022-12-07T10:31:33;12.10;;;9.87;;
4595;SDS011;2310;49.978;8.742;2022-12-07T10:35:42;11.20;;;9.27;;
4595;SDS011;2310;49.978;8.742;2022-12-07T10:39:50;12.67;;;7.87;;
4595;SDS011;2310;49.978;8.742;2022-12-07T10:43:54;12.07;;;8.57;;
4595;SDS011;2310;49.978;8.742;2022-12-07T10:48:06;13.37;;;8.10;;
4595;SDS011;2310;49.978;8.742;2022-12-07T11:27:03;13.13;;;9.03;;
4595;SDS011;2310;49.978;8.742;2022-12-07T11:39:51;11.60;;;7.90;;
4595;SDS011;2310;49.978;8.742;2022-12-07T11:43:59;9.80;;;8.03;;
4595;SDS011;2310;49.978;8.742;2022-12-07T11:48:15;9.00;;;7.33;;
4595;SDS011;2310;49.978;8.742;2022-12-07T11:56:51;9.90;;;7.80;;
4595;SDS011;2310;49.978;8.742;2022-12-07T12:01:01;11.10;;;8.00;;
4595;SDS011;2310;49.978;8.742;2022-12-07T12:05:17;10.27;;;7.60;;
4595;SDS011;2310;49.978;8.742;2022-12-07T12:09:29;8.67;;;6.83;;
4595;SDS011;2310;49.978;8.742;2022-12-07T12:13:48;14.07;;;6.80;;
4595;SDS011;2310;49.978;8.742;2022-12-07T12:22:15;8.27;;;7.00;;
4595;SDS011;2310;49.978;8.742;2022-12-07T12:26:19;11.70;;;7.40;;
4595;SDS011;2310;49.978;8.742;2022-12-07T12:30:34;13.50;;;11.83;;
4595;SDS011;2310;49.978;8.742;2022-12-07T12:34:38;14.23;;;8.60;;
4595;SDS011;2310;49.978;8.742;2022-12-07T12:48:00;6.57;;;5.37;;
4595;SDS011;2310;49.978;8.742;2022-12-07T13:00:23;7.23;;;5.00;;
4595;SDS011;2310;49.978;8.742;2022-12-07T13:04:28;8.00;;;5.50;;
4595;SDS011;2310;49.978;8.742;2022-12-07T13:08:31;12.17;;;8.37;;
4595;SDS011;2310;49.978;8.742;2022-12-07T13:12:34;8.87;;;6.70;;
4595;SDS011;2310;49.978;8.742;2022-12-07T13:16:36;11.83;;;8.00;;
4595;SDS011;2310;49.978;8.742;2022-12-07T13:20:45;11.47;;;5.30;;
4595;SDS011;2310;49.978;8.742;2022-12-07T13:24:59;7.60;;;4.43;;
4595;SDS011;2310;49.978;8.742;2022-12-07T13:33:05;7.47;;;3.77;;
4595;SDS011;2310;49.978;8.742;2022-12-07T13:41:26;6.00;;;3.70;;
4595;SDS011;2310;49.978;8.742;2022-12-07T13:49:53;25.33;;;19.00;;
4595;SDS011;2310;49.978;8.742;2022-12-07T13:53:59;6.53;;;3.50;;
4595;SDS011;2310;49.978;8.742;2022-12-07T13:58:01;5.60;;;3.10;;
4595;SDS011;2310;49.978;8.742;2022-12-07T14:02:02;5.37;;;2.73;;
4595;SDS011;2310;49.978;8.742;2022-12-07T14:06:14;6.33;;;3.07;;
4595;SDS011;2310;49.978;8.742;2022-12-07T14:14:50;8.80;;;4.27;;
4595;SDS011;2310;49.978;8.742;2022-12-07T14:18:51;6.60;;;3.63;;
4595;SDS011;2310;49.978;8.742;2022-12-07T14:22:56;5.00;;;3.60;;
4595;SDS011;2310;49.978;8.742;2022-12-07T14:26:58;6.90;;;4.00;;
4595;SDS011;2310;49.978;8.742;2022-12-07T14:30:59;5.50;;;3.77;;
4595;SDS011;2310;49.978;8.742;2022-12-07T14:35:07;4.10;;;2.90;;
4595;SDS011;2310;49.978;8.742;2022-12-07T14:39:10;7.20;;;3.80;;
4595;SDS011;2310;49.978;8.742;2022-12-07T14:43:14;10.10;;;6.33;;
4595;SDS011;2310;49.978;8.742;2022-12-07T14:47:17;7.00;;;4.50;;
4595;SDS011;2310;49.978;8.742;2022-12-07T14:51:20;8.70;;;4.77;;
4595;SDS011;2310;49.978;8.742;2022-12-07T14:55:28;6.80;;;4.60;;
4595;SDS011;2310;49.978;8.742;2022-12-07T14:59:30;5.80;;;3.90;;
4595;SDS011;2310;49.978;8.742;2022-12-07T15:03:31;6.33;;;3.40;;
4595;SDS011;2310;49.978;8.742;2022-12-07T15:07:32;7.43;;;4.30;;
4595;SDS011;2310;49.978;8.742;2022-12-07T15:11:34;5.93;;;4.10;;
4595;SDS011;2310;49.978;8.742;2022-12-07T15:15:35;12.93;;;6.30;;
4595;SDS011;2310;49.978;8.742;2022-12-07T15:19:36;7.03;;;4.00;;
4595;SDS011;2310;49.978;8.742;2022-12-07T15:23:38;6.57;;;4.03;;
4595;SDS011;2310;49.978;8.742;2022-12-07T15:27:39;12.97;;;7.70;;
4595;SDS011;2310;49.978;8.742;2022-12-07T15:31:40;21.93;;;14.57;;
4595;SDS011;2310;49.978;8.742;2022-12-07T15:35:43;10.00;;;7.23;;
4595;SDS011;2310;49.978;8.742;2022-12-07T15:39:45;4.60;;;3.20;;
4595;SDS011;2310;49.978;8.742;2022-12-07T15:43:46;11.67;;;8.00;;
4595;SDS011;2310;49.978;8.742;2022-12-07T15:48:06;9.80;;;4.17;;
4595;SDS011;2310;49.978;8.742;2022-12-07T15:52:09;12.60;;;7.67;;
4595;SDS011;2310;49.978;8.742;2022-12-07T15:56:11;15.97;;;11.40;;
4595;SDS011;2310;49.978;8.742;2022-12-07T16:00:13;15.57;;;10.93;;
4595;SDS011;2310;49.978;8.742;2022-12-07T16:04:14;13.20;;;10.03;;
4595;SDS011;2310;49.978;8.742;2022-12-07T16:08:15;14.43;;;8.83;;
4595;SDS011;2310;49.978;8.742;2022-12-07T16:12:17;10.97;;;6.90;;
4595;SDS011;2310;49.978;8.742;2022-12-07T16:16:19;8.03;;;5.53;;
4595;SDS011;2310;49.978;8.742;2022-12-07T16:20:20;8.70;;;5.83;;
4595;SDS011;2310;49.978;8.742;2022-12-07T16:24:21;10.93;;;8.30;;
4595;SDS011;2310;49.978;8.742;2022-12-07T16:28:23;10.50;;;9.50;;
4595;SDS011;2310;49.978;8.742;2022-12-07T16:32:24;11.83;;;10.63;;
4595;SDS011;2310;49.978;8.742;2022-12-07T16:36:25;11.50;;;9.10;;
4595;SDS011;2310;49.978;8.742;2022-12-07T16:40:29;13.07;;;11.67;;
4595;SDS011;2310;49.978;8.742;2022-12-07T16:44:31;9.70;;;7.77;;
4595;SDS011;2310;49.978;8.742;2022-12-07T16:48:34;12.30;;;6.33;;
4595;SDS011;2310;49.978;8.742;2022-12-07T16:52:39;7.30;;;5.67;;
4595;SDS011;2310;49.978;8.742;2022-12-07T16:56:40;11.80;;;6.63;;
4595;SDS011;2310;49.978;8.742;2022-12-07T17:00:43;9.03;;;6.20;;
4595;SDS011;2310;49.978;8.742;2022-12-07T17:04:45;11.57;;;6.47;;
4595;SDS011;2310;49.978;8.742;2022-12-07T17:08:46;9.80;;;6.07;;
4595;SDS011;2310;49.978;8.742;2022-12-07T17:12:49;12.27;;;6.03;;
4595;SDS011;2310;49.978;8.742;2022-12-07T17:16:50;6.27;;;4.67;;
4595;SDS011;2310;49.978;8.742;2022-12-07T17:20:51;7.00;;;5.00;;
4595;SDS011;2310;49.978;8.742;2022-12-07T17:24:52;6.93;;;4.87;;
4595;SDS011;2310;49.978;8.742;2022-12-07T17:28:53;5.10;;;3.80;;
4595;SDS011;2310;49.978;8.742;2022-12-07T17:32:55;7.57;;;2.90;;
4595;SDS011;2310;49.978;8.742;2022-12-07T17:36:56;7.90;;;3.70;;
4595;SDS011;2310;49.978;8.742;2022-12-07T17:40:57;4.77;;;3.27;;
4595;SDS011;2310;49.978;8.742;2022-12-07T17:44:58;7.27;;;4.60;;
4595;SDS011;2310;49.978;8.742;2022-12-07T17:49:00;5.90;;;3.10;;
4595;SDS011;2310;49.978;8.742;2022-12-07T17:53:02;6.03;;;3.17;;
4595;SDS011;2310;49.978;8.742;2022-12-07T17:57:12;6.23;;;3.00;;
4595;SDS011;2310;49.978;8.742;2022-12-07T18:01:13;5.53;;;3.57;;
4595;SDS011;2310;49.978;8.742;2022-12-07T18:05:15;6.20;;;3.90;;
4595;SDS011;2310;49.978;8.742;2022-12-07T18:09:16;6.33;;;3.90;;
4595;SDS011;2310;49.978;8.742;2022-12-07T18:13:17;5.47;;;3.40;;
4595;SDS011;2310;49.978;8.742;2022-12-07T18:17:36;6.07;;;3.50;;
4595;SDS011;2310;49.978;8.742;2022-12-07T18:21:37;6.47;;;4.03;;
4595;SDS011;2310;49.978;8.742;2022-12-07T18:25:39;8.53;;;4.43;;
4595;SDS011;2310;49.978;8.742;2022-12-07T18:29:42;7.83;;;6.00;;
4595;SDS011;2310;49.978;8.742;2022-12-07T18:33:43;7.97;;;5.07;;
4595;SDS011;2310;49.978;8.742;2022-12-07T18:37:46;7.53;;;4.53;;
4595;SDS011;2310;49.978;8.742;2022-12-07T18:41:47;5.93;;;4.30;;
4595;SDS011;2310;49.978;8.742;2022-12-07T18:45:48;12.00;;;4.80;;
4595;SDS011;2310;49.978;8.742;2022-12-07T18:49:51;9.03;;;5.73;;
4595;SDS011;2310;49.978;8.742;2022-12-07T18:53:55;6.10;;;4.67;;
4595;SDS011;2310;49.978;8.742;2022-12-07T18:57:57;7.83;;;6.17;;
4595;SDS011;2310;49.978;8.742;2022-12-07T19:01:59;10.30;;;5.40;;
4595;SDS011;2310;49.978;8.742;2022-12-07T19:06:06;8.53;;;5.60;;
4595;SDS011;2310;49.978;8.742;2022-12-07T19:10:08;8.90;;;5.80;;
4595;SDS011;2310;49.978;8.742;2022-12-07T19:14:09;8.07;;;5.03;;
4595;SDS011;2310;49.978;8.742;2022-12-07T19:18:11;8.40;;;5.37;;
4595;SDS011;2310;49.978;8.742;2022-12-07T19:22:13;8.07;;;5.30;;
4595;SDS011;2310;49.978;8.742;2022-12-07T19:26:16;9.17;;;5.70;;
4595;SDS011;2310;49.978;8.742;2022-12-07T19:30:17;8.20;;;6.57;;
4595;SDS011;2310;49.978;8.742;2022-12-07T19:34:18;8.67;;;6.57;;
4595;SDS011;2310;49.978;8.742;2022-12-07T19:38:20;8.90;;;6.80;;
4595;SDS011;2310;49.978;8.742;2022-12-07T19:42:21;9.20;;;6.80;;
4595;SDS011;2310;49.978;8.742;2022-12-07T19:46:23;7.23;;;5.37;;
4595;SDS011;2310;49.978;8.742;2022-12-07T19:50:24;9.13;;;5.40;;
4595;SDS011;2310;49.978;8.742;2022-12-07T19:54:26;8.20;;;5.63;;
4595;SDS011;2310;49.978;8.742;2022-12-07T19:58:29;11.93;;;6.67;;
4595;SDS011;2310;49.978;8.742;2022-12-07T20:02:30;9.80;;;6.17;;
4595;SDS011;2310;49.978;8.742;2022-12-07T20:06:31;11.00;;;6.90;;
4595;SDS011;2310;49.978;8.742;2022-12-07T20:10:33;12.10;;;6.63;;
4595;SDS011;2310;49.978;8.742;2022-12-07T20:14:34;11.80;;;7.70;;
4595;SDS011;2310;49.978;8.742;2022-12-07T20:18:36;11.73;;;8.23;;
4595;SDS011;2310;49.978;8.742;2022-12-07T20:22:37;14.30;;;7.80;;
4595;SDS011;2310;49.978;8.742;2022-12-07T20:26:38;10.10;;;8.00;;
4595;SDS011;2310;49.978;8.742;2022-12-07T20:30:50;10.60;;;9.10;;
4595;SDS011;2310;49.978;8.742;2022-12-07T20:34:52;11.37;;;8.10;;
4595;SDS011;2310;49.978;8.742;2022-12-07T20:38:54;10.10;;;7.77;;
4595;SDS011;2310;49.978;8.742;2022-12-07T20:42:57;10.80;;;8.53;;
4595;SDS011;2310;49.978;8.742;2022-12-07T20:46:59;14.20;;;9.30;;
4595;SDS011;2310;49.978;8.742;2022-12-07T20:51:03;17.30;;;14.47;;
4595;SDS011;2310;49.978;8.742;2022-12-07T20:55:06;11.70;;;10.23;;
4595;SDS011;2310;49.978;8.742;2022-12-07T20:59:09;15.70;;;10.63;;
4595;SDS011;2310;49.978;8.742;2022-12-07T21:03:13;14.73;;;10.40;;
4595;SDS011;2310;49.978;8.742;2022-12-07T21:07:14;16.70;;;10.93;;
4595;SDS011;2310;49.978;8.742;2022-12-07T21:11:16;14.27;;;11.90;;
4595;SDS011;2310;49.978;8.742;2022-12-07T21:15:18;15.40;;;12.50;;
4595;SDS011;2310;49.978;8.742;2022-12-07T21:19:19;14.73;;;10.60;;
4595;SDS011;2310;49.978;8.742;2022-12-07T21:23:21;14.43;;;11.43;;
4595;SDS011;2310;49.978;8.742;2022-12-07T21:27:22;17.37;;;12.27;;
4595;SDS011;2310;49.978;8.742;2022-12-07T21:31:23;15.10;;;12.00;;
4595;SDS011;2310;49.978;8.742;2022-12-07T21:35:25;15.20;;;11.47;;
4595;SDS011;2310;49.978;8.742;2022-12-07T21:39:27;15.10;;;11.17;;
4595;SDS011;2310;49.978;8.742;2022-12-07T21:43:28;14.00;;;11.20;;
4595;SDS011;2310;49.978;8.742;2022-12-07T21:47:29;16.57;;;13.23;;
4595;SDS011;2310;49.978;8.742;2022-12-07T21:51:32;16.00;;;12.00;;
4595;SDS011;2310;49.978;8.742;2022-12-07T21:55:37;15.13;;;11.47;;
4595;SDS011;2310;49.978;8.742;2022-12-07T21:59:40;18.00;;;11.70;;
4595;SDS011;2310;49.978;8.742;2022-12-07T22:03:42;16.10;;;12.33;;
4595;SDS011;2310;49.978;8.742;2022-12-07T22:07:43;15.70;;;11.43;;
4595;SDS011;2310;49.978;8.742;2022-12-07T22:11:45;16.60;;;12.10;;
4595;SDS011;2310;49.978;8.742;2022-12-07T22:15:46;17.80;;;12.80;;
4595;SDS011;2310;49.978;8.742;2022-12-07T22:19:47;15.97;;;13.80;;
4595;SDS011;2310;49.978;8.742;2022-12-07T22:23:49;17.83;;;13.83;;
4595;SDS011;2310;49.978;8.742;2022-12-07T22:27:50;17.77;;;14.90;;
4595;SDS011;2310;49.978;8.742;2022-12-07T22:31:51;18.27;;;14.60;;
4595;SDS011;2310;49.978;8.742;2022-12-07T22:35:54;20.13;;;13.80;;
4595;SDS011;2310;49.978;8.742;2022-12-07T22:39:55;19.13;;;14.07;;
4595;SDS011;2310;49.978;8.742;2022-12-07T22:43:57;19.63;;;15.37;;
4595;SDS011;2310;49.978;8.742;2022-12-07T22:47:59;19.67;;;13.53;;
4595;SDS011;2310;49.978;8.742;2022-12-07T22:52:00;21.23;;;15.67;;
4595;SDS011;2310;49.978;8.742;2022-12-07T22:56:01;19.40;;;15.50;;
4595;SDS011;2310;49.978;8.742;2022-12-07T23:00:03;17.87;;;14.87;;
4595;SDS011;2310;49.978;8.742;2022-12-07T23:04:07;18.63;;;14.37;;
4595;SDS011;2310;49.978;8.742;2022-12-07T23:08:09;18.60;;;15.23;;
4595;SDS011;2310;49.978;8.742;2022-12-07T23:12:11;22.57;;;15.50;;
4595;SDS011;2310;49.978;8.742;2022-12-07T23:16:30;20.07;;;15.43;;
4595;SDS011;2310;49.978;8.742;2022-12-07T23:20:32;19.77;;;14.90;;
4595;SDS011;2310;49.978;8.742;2022-12-07T23:24:34;17.43;;;14.67;;
4595;SDS011;2310;49.978;8.742;2022-12-07T23:28:35;20.30;;;16.10;;
4595;SDS011;2310;49.978;8.742;2022-12-07T23:32:38;19.00;;;15.27;;
4595;SDS011;2310;49.978;8.742;2022-12-07T23:36:39;19.97;;;14.80;;
4595;SDS011;2310;49.978;8.742;2022-12-07T23:40:40;20.47;;;16.40;;
4595;SDS011;2310;49.978;8.742;2022-12-07T23:44:43;21.63;;;14.60;;
4595;SDS011;2310;49.978;8.742;2022-12-07T23:48:45;19.70;;;15.47;;
4595;SDS011;2310;49.978;8.742;2022-12-07T23:52:48;19.40;;;14.60;;
4595;SDS011;2310;49.978;8.742;2022-12-07T23:56:49;17.87;;;15.53;;
